TimeEST,TemperatureF,Dew PointF,Humidity,Sea Level PressureIn,VisibilityMPH,Wind Direction,Wind SpeedMPH,Gust SpeedMPH,PrecipitationIn,Events,Conditions,WindDirDegrees,DateUTC
12:15 AM,28.4,28.4,100,30.40,10.0,Calm,Calm,-,N/A,,Clear,0,2013-01-08 05:15:00
12:35 AM,28.4,26.6,93,30.40,10.0,Calm,Calm,-,N/A,,Clear,0,2013-01-08 05:35:00
12:55 AM,28.4,26.6,93,30.40,10.0,Calm,Calm,-,N/A,,Clear,0,2013-01-08 05:55:00
1:15 AM,26.6,26.6,100,30.38,10.0,Calm,Calm,-,N/A,,Clear,0,2013-01-08 06:15:00
1:35 AM,26.6,24.8,93,30.38,10.0,Calm,Calm,-,N/A,,Clear,0,2013-01-08 06:35:00
1:55 AM,26.6,26.6,100,30.38,10.0,Calm,Calm,-,N/A,,Clear,0,2013-01-08 06:55:00
2:15 AM,26.6,26.6,100,30.38,7.0,Calm,Calm,-,N/A,,Clear,0,2013-01-08 07:15:00
2:35 AM,26.6,26.6,100,30.38,10.0,Calm,Calm,-,N/A,,Clear,0,2013-01-08 07:35:00
2:55 AM,26.6,26.6,100,30.38,10.0,Calm,Calm,-,N/A,,Clear,0,2013-01-08 07:55:00
3:15 AM,26.6,24.8,93,30.38,10.0,Calm,Calm,-,N/A,,Clear,0,2013-01-08 08:15:00
3:35 AM,26.6,24.8,93,30.38,7.0,Calm,Calm,-,N/A,,Clear,0,2013-01-08 08:35:00
3:55 AM,26.6,26.6,100,30.38,7.0,Calm,Calm,-,N/A,,Clear,0,2013-01-08 08:55:00
4:15 AM,24.8,23.0,93,30.38,7.0,Calm,Calm,-,N/A,,Clear,0,2013-01-08 09:15:00
4:35 AM,24.8,24.8,100,30.38,7.0,Calm,Calm,-,N/A,,Clear,0,2013-01-08 09:35:00
4:55 AM,24.8,24.8,100,30.38,7.0,Calm,Calm,-,N/A,,Mostly Cloudy,0,2013-01-08 09:55:00
5:15 AM,26.6,26.6,100,30.38,7.0,Calm,Calm,-,N/A,,Overcast,0,2013-01-08 10:15:00
5:35 AM,28.4,26.6,93,30.38,7.0,Calm,Calm,-,N/A,,Overcast,0,2013-01-08 10:35:00
5:55 AM,28.4,28.4,100,30.38,7.0,West,3.5,-,N/A,,Overcast,280,2013-01-08 10:55:00
6:15 AM,30.2,28.4,93,30.39,7.0,Calm,Calm,-,N/A,,Overcast,0,2013-01-08 11:15:00
6:35 AM,28.4,28.4,100,30.39,7.0,Calm,Calm,-,N/A,,Scattered Clouds,0,2013-01-08 11:35:00
6:55 AM,28.4,28.4,100,30.40,7.0,Calm,Calm,-,N/A,,Clear,0,2013-01-08 11:55:00
7:15 AM,26.6,26.6,100,30.40,7.0,Calm,Calm,-,N/A,,Clear,0,2013-01-08 12:15:00
7:35 AM,28.4,26.6,93,30.41,7.0,Calm,Calm,-,N/A,,Clear,0,2013-01-08 12:35:00
7:55 AM,26.6,26.6,100,30.41,5.0,Calm,Calm,-,N/A,,Clear,0,2013-01-08 12:55:00
8:15 AM,28.4,26.6,93,30.42,5.0,Calm,Calm,-,N/A,,Clear,0,2013-01-08 13:15:00
8:35 AM,30.2,30.2,100,30.42,7.0,Calm,Calm,-,N/A,,Clear,0,2013-01-08 13:35:00
9:15 AM,32.0,32.0,100,30.44,10.0,Calm,Calm,-,N/A,,Overcast,0,2013-01-08 14:15:00
9:35 AM,33.8,30.2,87,30.45,10.0,Calm,Calm,-,N/A,,Overcast,0,2013-01-08 14:35:00
9:55 AM,35.6,32.0,87,30.45,10.0,Calm,Calm,-,N/A,,Overcast,0,2013-01-08 14:55:00
10:15 AM,39.2,32.0,75,30.46,10.0,Calm,Calm,-,N/A,,Overcast,0,2013-01-08 15:15:00
10:35 AM,41.0,32.0,70,30.46,10.0,Calm,Calm,-,N/A,,Overcast,0,2013-01-08 15:35:00
10:55 AM,42.8,32.0,66,30.45,10.0,Calm,Calm,-,N/A,,Overcast,0,2013-01-08 15:55:00
11:15 AM,42.8,32.0,66,30.44,10.0,Calm,Calm,-,N/A,,Overcast,0,2013-01-08 16:15:00
11:35 AM,44.6,32.0,61,30.43,10.0,Calm,Calm,-,N/A,,Overcast,0,2013-01-08 16:35:00
11:55 AM,46.4,32.0,57,30.42,10.0,Calm,Calm,-,N/A,,Overcast,0,2013-01-08 16:55:00
12:15 PM,46.4,32.0,57,30.41,10.0,Calm,Calm,-,N/A,,Mostly Cloudy,0,2013-01-08 17:15:00
12:35 PM,48.2,32.0,54,30.40,10.0,Calm,Calm,-,N/A,,Overcast,0,2013-01-08 17:35:00
12:55 PM,48.2,32.0,54,30.40,10.0,NE,3.5,-,N/A,,Overcast,40,2013-01-08 17:55:00
1:15 PM,48.2,32.0,54,30.39,10.0,Calm,Calm,-,N/A,,Overcast,0,2013-01-08 18:15:00
1:35 PM,50.0,32.0,50,30.38,10.0,Calm,Calm,-,N/A,,Overcast,0,2013-01-08 18:35:00
1:55 PM,50.0,33.8,54,30.37,10.0,Calm,Calm,-,N/A,,Overcast,0,2013-01-08 18:55:00
2:15 PM,50.0,33.8,54,30.36,10.0,Calm,Calm,-,N/A,,Overcast,0,2013-01-08 19:15:00
2:35 PM,50.0,33.8,54,30.36,10.0,Calm,Calm,-,N/A,,Overcast,0,2013-01-08 19:35:00
2:55 PM,50.0,33.8,54,30.36,10.0,Calm,Calm,-,N/A,,Overcast,0,2013-01-08 19:55:00
3:15 PM,51.8,35.6,54,30.36,10.0,Calm,Calm,-,N/A,,Overcast,0,2013-01-08 20:15:00
3:35 PM,51.8,35.6,54,30.35,10.0,Calm,Calm,-,N/A,,Overcast,0,2013-01-08 20:35:00
3:55 PM,51.8,35.6,54,30.36,10.0,Calm,Calm,-,N/A,,Overcast,0,2013-01-08 20:55:00
4:15 PM,51.8,37.4,58,30.37,10.0,Calm,Calm,-,N/A,,Mostly Cloudy,0,2013-01-08 21:15:00
4:35 PM,51.8,37.4,58,30.36,10.0,Calm,Calm,-,N/A,,Overcast,0,2013-01-08 21:35:00
4:55 PM,50.0,37.4,62,30.36,10.0,Calm,Calm,-,N/A,,Overcast,0,2013-01-08 21:55:00
5:15 PM,50.0,37.4,62,30.36,10.0,Calm,Calm,-,N/A,,Mostly Cloudy,0,2013-01-08 22:15:00
5:35 PM,50.0,37.4,62,30.36,10.0,Calm,Calm,-,N/A,,Overcast,0,2013-01-08 22:35:00
5:55 PM,46.4,37.4,71,30.36,10.0,Calm,Calm,-,N/A,,Overcast,0,2013-01-08 22:55:00
6:15 PM,46.4,37.4,71,30.37,10.0,Calm,Calm,-,N/A,,Overcast,0,2013-01-08 23:15:00
6:35 PM,46.4,37.4,71,30.38,10.0,Calm,Calm,-,N/A,,Overcast,0,2013-01-08 23:35:00
6:55 PM,46.4,37.4,71,30.37,10.0,Calm,Calm,-,N/A,,Overcast,0,2013-01-08 23:55:00
7:15 PM,46.4,37.4,71,30.38,10.0,Calm,Calm,-,N/A,,Overcast,0,2013-01-09 00:15:00
7:35 PM,46.4,37.4,71,30.37,10.0,Calm,Calm,-,N/A,,Overcast,0,2013-01-09 00:35:00
7:55 PM,44.6,37.4,76,30.38,10.0,Calm,Calm,-,N/A,,Mostly Cloudy,0,2013-01-09 00:55:00
8:15 PM,42.8,35.6,76,30.38,10.0,Calm,Calm,-,N/A,,Mostly Cloudy,0,2013-01-09 01:15:00
8:35 PM,42.8,37.4,81,30.38,10.0,Calm,Calm,-,N/A,,Scattered Clouds,0,2013-01-09 01:35:00
8:55 PM,41.0,37.4,87,30.40,10.0,West,5.8,-,N/A,,Mostly Cloudy,270,2013-01-09 01:55:00
9:15 PM,42.8,37.4,81,30.39,10.0,Calm,Calm,-,N/A,,Overcast,0,2013-01-09 02:15:00
9:35 PM,42.8,37.4,81,30.39,10.0,Calm,Calm,-,N/A,,Overcast,0,2013-01-09 02:35:00
9:55 PM,42.8,37.4,81,30.38,10.0,Calm,Calm,-,N/A,,Overcast,0,2013-01-09 02:55:00
10:15 PM,42.8,37.4,81,30.39,10.0,Calm,Calm,-,N/A,,Overcast,0,2013-01-09 03:15:00
10:35 PM,42.8,37.4,81,30.40,10.0,Calm,Calm,-,N/A,,Overcast,0,2013-01-09 03:35:00
10:55 PM,42.8,37.4,81,30.39,10.0,Calm,Calm,-,N/A,,Overcast,0,2013-01-09 03:55:00
11:15 PM,44.6,37.4,76,30.40,10.0,Calm,Calm,-,N/A,,Overcast,0,2013-01-09 04:15:00
11:35 PM,44.6,37.4,76,30.40,10.0,Calm,Calm,-,N/A,,Overcast,0,2013-01-09 04:35:00
11:55 PM,44.6,37.4,76,30.40,10.0,Calm,Calm,-,N/A,,Overcast,0,2013-01-09 04:55:00